Time;durP1;ratioP1;P1;durP2;ratioP2;P2;SDS_P1;SDS_P2;PMS_P1;PMS_P2;Temp;Humidity;BMP_temperature;BMP_pressure;BME280_temperature;BME280_humidity;BME280_pressure;Samples;Min_cycle;Max_cycle;Signal;HPM_P1;HPM_P2
2024/01/27 00:01:45;;;;;;;0.98;0.50;;;;;;;;;;5075711;28;20042;-77
2024/01/27 00:04:12;;;;;;;0.73;0.47;;;;;;;;;;5073028;28;20471;-78
2024/01/27 00:06:38;;;;;;;0.80;0.45;;;;;;;;;;5068468;28;20028;-78
2024/01/27 00:09:06;;;;;;;0.85;0.43;;;;;;;;;;5074822;28;20025;-78
2024/01/27 00:11:32;;;;;;;0.50;0.28;;;;;;;;;;5071666;28;20105;-77
2024/01/27 00:13:59;;;;;;;1.95;0.77;;;;;;;;;;5071267;28;20028;-76
2024/01/27 00:16:25;;;;;;;1.38;0.60;;;;;;;;;;5074037;28;20095;-76
2024/01/27 00:18:51;;;;;;;2.72;0.63;;;;;;;;;;5070207;28;20384;-76
2024/01/27 00:21:17;;;;;;;1.85;0.73;;;;;;;;;;5073438;28;20075;-77
2024/01/27 00:23:43;;;;;;;3.55;1.35;;;;;;;;;;5074770;28;20025;-78
2024/01/27 00:26:11;;;;;;;4.57;1.42;;;;;;;;;;5067098;28;20074;-78
2024/01/27 00:28:37;;;;;;;3.28;1.15;;;;;;;;;;5075845;28;20509;-78
2024/01/27 00:31:03;;;;;;;3.55;1.70;;;;;;;;;;5073127;28;20025;-78
2024/01/27 00:33:29;;;;;;;2.55;1.25;;;;;;;;;;5077716;28;20378;-78
2024/01/27 00:35:55;;;;;;;2.80;1.40;;;;;;;;;;5079406;28;20016;-77
2024/01/27 00:38:21;;;;;;;5.25;2.47;;;;;;;;;;5080884;28;20024;-78
2024/01/27 00:40:47;;;;;;;4.75;1.85;;;;;;;;;;5073903;28;20021;-78
2024/01/27 00:43:13;;;;;;;3.08;1.60;;;;;;;;;;5071462;28;20016;-77
2024/01/27 00:45:39;;;;;;;6.13;2.05;;;;;;;;;;5068554;28;20044;-77
2024/01/27 00:48:06;;;;;;;6.93;2.13;;;;;;;;;;5068218;28;20048;-77
2024/01/27 00:50:32;;;;;;;6.32;1.95;;;;;;;;;;5070879;28;20033;-77
2024/01/27 00:52:58;;;;;;;4.68;1.70;;;;;;;;;;5078766;28;20031;-78
2024/01/27 00:55:25;;;;;;;4.00;1.40;;;;;;;;;;5085160;28;20310;-77
2024/01/27 00:57:51;;;;;;;3.38;1.50;;;;;;;;;;5078821;28;20044;-77
2024/01/27 01:00:17;;;;;;;4.13;1.50;;;;;;;;;;5072077;28;20024;-78
2024/01/27 01:02:43;;;;;;;6.75;1.70;;;;;;;;;;5067874;28;20490;-77
2024/01/27 01:05:09;;;;;;;3.83;1.25;;;;;;;;;;5069794;28;20052;-78
2024/01/27 01:07:36;;;;;;;1.23;0.95;;;;;;;;;;5070736;28;20024;-79
2024/01/27 01:10:02;;;;;;;1.75;1.23;;;;;;;;;;5070767;28;20055;-78
2024/01/27 01:12:28;;;;;;;2.15;1.00;;;;;;;;;;5071799;28;20020;-78
2024/01/27 01:14:57;;;;;;;3.00;1.23;;;;;;;;;;5081304;28;20025;-77
2024/01/27 01:17:23;;;;;;;1.33;0.75;;;;;;;;;;5091700;28;20044;-78
2024/01/27 01:19:49;;;;;;;4.50;0.90;;;;;;;;;;5090897;28;20054;-78
2024/01/27 01:22:15;;;;;;;4.18;1.77;;;;;;;;;;5084611;28;20032;-78
2024/01/27 01:24:41;;;;;;;2.90;0.90;;;;;;;;;;5085343;28;20047;-79
2024/01/27 01:27:08;;;;;;;1.02;0.80;;;;;;;;;;5090285;28;20015;-78
2024/01/27 01:29:34;;;;;;;3.05;1.00;;;;;;;;;;5091832;28;20020;-78
2024/01/27 01:32:04;;;;;;;2.05;0.88;;;;;;;;;;5088206;28;20021;-78
2024/01/27 01:34:31;;;;;;;3.50;1.85;;;;;;;;;;5090244;28;20031;-77
2024/01/27 01:36:58;;;;;;;0.90;0.60;;;;;;;;;;5077643;28;20025;-77
2024/01/27 01:39:24;;;;;;;3.17;1.10;;;;;;;;;;5087974;28;20076;-78
2024/01/27 01:41:50;;;;;;;1.90;0.70;;;;;;;;;;5088439;28;20020;-78
2024/01/27 01:44:16;;;;;;;2.47;1.20;;;;;;;;;;5087275;28;20023;-79
2024/01/27 01:46:42;;;;;;;2.22;1.08;;;;;;;;;;5077970;28;20064;-78
2024/01/27 01:49:08;;;;;;;4.68;1.63;;;;;;;;;;5076479;28;20028;-77
2024/01/27 01:51:34;;;;;;;4.18;1.75;;;;;;;;;;5067901;28;20021;-78
2024/01/27 01:54:00;;;;;;;5.30;2.15;;;;;;;;;;5069814;28;20400;-78
2024/01/27 01:56:26;;;;;;;5.22;2.30;;;;;;;;;;5065095;28;20026;-78
2024/01/27 01:58:54;;;;;;;5.15;1.85;;;;;;;;;;5072818;28;20031;-77
2024/01/27 02:01:23;;;;;;;8.00;2.20;;;;;;;;;;5068337;28;20028;-78
2024/01/27 02:03:53;;;;;;;3.30;1.92;;;;;;;;;;5069379;28;20111;-78
2024/01/27 02:06:19;;;;;;;6.18;1.92;;;;;;;;;;5070704;28;20426;-78
2024/01/27 02:08:45;;;;;;;4.55;1.88;;;;;;;;;;5068731;28;20024;-78
2024/01/27 02:11:12;;;;;;;3.10;1.60;;;;;;;;;;5070731;28;20106;-78
2024/01/27 02:13:38;;;;;;;3.45;1.63;;;;;;;;;;5075653;28;20040;-77
2024/01/27 02:16:04;;;;;;;5.47;1.98;;;;;;;;;;5078575;28;20033;-78
2024/01/27 02:18:30;;;;;;;3.67;1.80;;;;;;;;;;5077572;28;20039;-77
2024/01/27 02:20:57;;;;;;;4.20;1.50;;;;;;;;;;5077021;28;20026;-78
2024/01/27 02:23:23;;;;;;;3.95;1.35;;;;;;;;;;5074110;28;20588;-78
2024/01/27 02:25:53;;;;;;;3.08;1.25;;;;;;;;;;5073070;28;20399;-78
2024/01/27 02:28:19;;;;;;;3.50;0.90;;;;;;;;;;5078330;28;20143;-79
2024/01/27 02:30:45;;;;;;;3.00;1.17;;;;;;;;;;5074426;28;20074;-77
2024/01/27 02:33:11;;;;;;;4.38;2.00;;;;;;;;;;5072995;28;20428;-77
2024/01/27 02:35:37;;;;;;;6.90;1.38;;;;;;;;;;5077358;28;20464;-78
2024/01/27 02:38:03;;;;;;;6.53;1.92;;;;;;;;;;5073871;28;20041;-78
2024/01/27 02:40:30;;;;;;;5.75;1.55;;;;;;;;;;5071245;28;20470;-77
2024/01/27 02:42:56;;;;;;;5.88;1.05;;;;;;;;;;5082731;28;20025;-78
2024/01/27 02:45:28;;;;;;;7.13;1.10;;;;;;;;;;5084992;28;20108;-79
2024/01/27 02:47:54;;;;;;;4.82;1.00;;;;;;;;;;5072407;28;20021;-78
2024/01/27 02:50:20;;;;;;;2.08;0.60;;;;;;;;;;5074452;28;20025;-76
2024/01/27 02:52:46;;;;;;;1.25;0.65;;;;;;;;;;5074170;28;20373;-78
2024/01/27 02:55:12;;;;;;;3.08;0.93;;;;;;;;;;5072453;28;20021;-77
2024/01/27 02:57:38;;;;;;;3.63;0.90;;;;;;;;;;5074209;28;20098;-77
2024/01/27 03:00:05;;;;;;;3.38;1.00;;;;;;;;;;5074615;28;20025;-77
2024/01/27 03:02:31;;;;;;;4.53;0.88;;;;;;;;;;5068134;28;20047;-78
2024/01/27 03:04:57;;;;;;;4.93;0.90;;;;;;;;;;5072481;28;20044;-77
2024/01/27 03:07:23;;;;;;;4.55;0.85;;;;;;;;;;5074156;28;20440;-77
2024/01/27 03:09:49;;;;;;;1.02;0.70;;;;;;;;;;5076319;28;20025;-77
2024/01/27 03:12:15;;;;;;;1.23;0.88;;;;;;;;;;5086280;28;20092;-78
2024/01/27 03:14:42;;;;;;;3.92;1.00;;;;;;;;;;5069402;28;20020;-77
2024/01/27 03:17:09;;;;;;;2.67;1.10;;;;;;;;;;5073411;28;20033;-78
2024/01/27 03:19:35;;;;;;;2.28;0.88;;;;;;;;;;5071419;28;20142;-77
2024/01/27 03:22:01;;;;;;;2.13;1.05;;;;;;;;;;5069502;28;20021;-79
2024/01/27 03:24:27;;;;;;;1.92;0.68;;;;;;;;;;5069303;28;20538;-78
2024/01/27 03:26:53;;;;;;;1.15;0.70;;;;;;;;;;5070107;28;20395;-78
2024/01/27 03:29:19;;;;;;;2.05;0.73;;;;;;;;;;5076001;28;20028;-78
2024/01/27 03:31:45;;;;;;;1.27;0.43;;;;;;;;;;5076602;28;20021;-78
2024/01/27 03:34:11;;;;;;;2.53;1.17;;;;;;;;;;5075744;28;20020;-78
2024/01/27 03:36:37;;;;;;;5.25;0.82;;;;;;;;;;5076194;28;20106;-77
2024/01/27 03:39:04;;;;;;;1.70;0.60;;;;;;;;;;5065806;28;20118;-77
2024/01/27 03:41:30;;;;;;;1.35;0.57;;;;;;;;;;5071111;28;20024;-77
2024/01/27 03:43:56;;;;;;;3.58;0.60;;;;;;;;;;5075755;28;20506;-77
2024/01/27 03:46:22;;;;;;;1.83;0.52;;;;;;;;;;5076299;28;20063;-77
2024/01/27 03:48:48;;;;;;;1.27;0.57;;;;;;;;;;5076368;28;20043;-77
2024/01/27 03:51:14;;;;;;;4.10;1.10;;;;;;;;;;5067683;28;20051;-76
2024/01/27 03:53:40;;;;;;;2.35;0.98;;;;;;;;;;5075750;28;20048;-79
2024/01/27 03:56:06;;;;;;;4.32;2.30;;;;;;;;;;5067509;28;20375;-77
2024/01/27 03:58:32;;;;;;;3.35;0.90;;;;;;;;;;5074525;28;20044;-77
2024/01/27 04:00:58;;;;;;;3.83;1.20;;;;;;;;;;5073476;28;20031;-77
2024/01/27 04:03:25;;;;;;;3.47;0.77;;;;;;;;;;5074593;28;20021;-76
2024/01/27 04:05:51;;;;;;;5.60;1.50;;;;;;;;;;5074816;28;20055;-78
2024/01/27 04:08:17;;;;;;;2.13;0.70;;;;;;;;;;5076082;28;20387;-76
2024/01/27 04:10:43;;;;;;;3.75;0.88;;;;;;;;;;5074869;28;20105;-77
2024/01/27 04:13:09;;;;;;;5.80;2.10;;;;;;;;;;5067848;28;20112;-78
2024/01/27 04:15:38;;;;;;;3.55;1.35;;;;;;;;;;5076721;28;20021;-79
2024/01/27 04:18:05;;;;;;;3.78;0.73;;;;;;;;;;5077374;28;20483;-77
2024/01/27 04:20:31;;;;;;;2.85;1.10;;;;;;;;;;5069532;28;20079;-78
2024/01/27 04:22:57;;;;;;;3.25;0.85;;;;;;;;;;5068314;28;20164;-79
2024/01/27 04:25:23;;;;;;;3.80;1.02;;;;;;;;;;5084508;28;20081;-79
2024/01/27 04:27:49;;;;;;;3.25;1.20;;;;;;;;;;5088087;28;20025;-78
2024/01/27 04:30:16;;;;;;;3.22;0.80;;;;;;;;;;5089323;28;20072;-78
2024/01/27 04:32:42;;;;;;;2.20;1.02;;;;;;;;;;5089489;28;20069;-78
2024/01/27 04:35:11;;;;;;;1.63;0.70;;;;;;;;;;5090046;28;20032;-77
2024/01/27 04:37:37;;;;;;;1.05;0.57;;;;;;;;;;5089999;28;20035;-77
2024/01/27 04:40:07;;;;;;;1.90;0.52;;;;;;;;;;5091113;28;20031;-79
2024/01/27 04:42:34;;;;;;;1.35;0.52;;;;;;;;;;5078532;28;20063;-79
2024/01/27 04:45:00;;;;;;;3.05;0.63;;;;;;;;;;5077168;28;20039;-79
2024/01/27 04:47:26;;;;;;;0.65;0.40;;;;;;;;;;5078209;28;20380;-77
2024/01/27 04:49:52;;;;;;;4.53;1.00;;;;;;;;;;5077776;28;20024;-78
2024/01/27 04:52:18;;;;;;;2.35;0.80;;;;;;;;;;5069979;28;20016;-78
2024/01/27 04:54:44;;;;;;;2.10;1.13;;;;;;;;;;5069667;28;20053;-78
2024/01/27 04:57:11;;;;;;;5.18;0.98;;;;;;;;;;5082806;28;20084;-78
2024/01/27 04:59:37;;;;;;;2.22;0.82;;;;;;;;;;5082143;28;20036;-78
2024/01/27 05:02:03;;;;;;;2.38;0.70;;;;;;;;;;5078170;28;20029;-77
2024/01/27 05:04:29;;;;;;;1.70;0.60;;;;;;;;;;5077222;28;20442;-79
2024/01/27 05:06:55;;;;;;;1.02;0.50;;;;;;;;;;5091155;28;20074;-80
2024/01/27 05:09:21;;;;;;;2.72;0.55;;;;;;;;;;5084630;28;20027;-78
2024/01/27 05:11:48;;;;;;;6.45;0.88;;;;;;;;;;5085022;28;20036;-78
2024/01/27 05:14:14;;;;;;;4.93;0.70;;;;;;;;;;5075622;28;20081;-77
2024/01/27 05:16:40;;;;;;;2.13;1.08;;;;;;;;;;5092692;28;20028;-77
2024/01/27 05:19:06;;;;;;;6.63;1.20;;;;;;;;;;5081487;28;20034;-78
2024/01/27 05:21:33;;;;;;;5.68;1.35;;;;;;;;;;5080701;28;20047;-78
2024/01/27 05:23:59;;;;;;;4.10;1.02;;;;;;;;;;5082883;28;20020;-78
2024/01/27 05:26:25;;;;;;;4.68;0.70;;;;;;;;;;5085317;28;20020;-77
2024/01/27 05:28:51;;;;;;;1.77;0.80;;;;;;;;;;5080720;28;20107;-78
2024/01/27 05:31:17;;;;;;;2.75;0.90;;;;;;;;;;5073369;28;20025;-76
2024/01/27 05:33:43;;;;;;;6.20;0.88;;;;;;;;;;5079846;28;20025;-77
2024/01/27 05:36:09;;;;;;;1.73;0.75;;;;;;;;;;5085029;28;20036;-79
2024/01/27 05:38:35;;;;;;;1.50;0.75;;;;;;;;;;5081422;28;20035;-78
2024/01/27 05:41:02;;;;;;;3.35;0.85;;;;;;;;;;5076490;28;20472;-77
2024/01/27 05:43:29;;;;;;;3.20;1.00;;;;;;;;;;5072501;28;20035;-78
2024/01/27 05:45:55;;;;;;;6.70;1.63;;;;;;;;;;5076838;28;20044;-77
2024/01/27 05:48:22;;;;;;;1.70;0.82;;;;;;;;;;5076808;28;20079;-77
2024/01/27 05:50:58;;;;;;;4.35;1.10;;;;;;;;;;5076749;28;20215;-77
2024/01/27 05:53:24;;;;;;;5.72;1.40;;;;;;;;;;5075185;28;20031;-77
2024/01/27 05:55:51;;;;;;;3.58;1.38;;;;;;;;;;5076852;28;20025;-81
2024/01/27 05:58:17;;;;;;;5.63;1.00;;;;;;;;;;5078085;28;20021;-81
2024/01/27 06:00:44;;;;;;;3.67;1.00;;;;;;;;;;5078569;28;20471;-78
2024/01/27 06:03:11;;;;;;;4.25;1.17;;;;;;;;;;5076289;28;20029;-77
2024/01/27 06:05:37;;;;;;;2.42;1.00;;;;;;;;;;5086327;28;20021;-78
2024/01/27 06:08:04;;;;;;;2.15;0.98;;;;;;;;;;5088822;28;20031;-79
2024/01/27 06:10:31;;;;;;;3.03;0.75;;;;;;;;;;5099135;28;20142;-78
2024/01/27 06:12:57;;;;;;;5.32;1.27;;;;;;;;;;5089837;28;20021;-77
2024/01/27 06:15:23;;;;;;;5.93;1.27;;;;;;;;;;5081754;28;20025;-78
2024/01/27 06:17:49;;;;;;;1.90;0.85;;;;;;;;;;5057747;28;20044;-78
2024/01/27 06:20:18;;;;;;;2.15;0.90;;;;;;;;;;5065626;28;20059;-78
2024/01/27 06:22:45;;;;;;;2.28;0.73;;;;;;;;;;5079711;28;20070;-78
2024/01/27 06:25:11;;;;;;;2.30;0.73;;;;;;;;;;5088313;28;20544;-77
2024/01/27 06:27:38;;;;;;;0.75;0.60;;;;;;;;;;5081684;28;20056;-77
2024/01/27 06:30:05;;;;;;;1.73;1.00;;;;;;;;;;5075752;28;20021;-77
2024/01/27 06:32:31;;;;;;;2.33;1.13;;;;;;;;;;5074325;28;20024;-79
2024/01/27 06:34:57;;;;;;;1.42;0.88;;;;;;;;;;5099078;28;20020;-77
2024/01/27 06:37:23;;;;;;;1.00;0.93;;;;;;;;;;5085419;28;20025;-77
2024/01/27 06:39:49;;;;;;;1.40;0.95;;;;;;;;;;5076231;28;20033;-77
2024/01/27 06:42:15;;;;;;;2.92;1.00;;;;;;;;;;5077556;28;20224;-78
2024/01/27 06:44:41;;;;;;;5.38;1.45;;;;;;;;;;5077947;28;20167;-78
2024/01/27 06:47:07;;;;;;;4.47;1.58;;;;;;;;;;5087038;28;20035;-78
2024/01/27 06:49:33;;;;;;;6.07;1.55;;;;;;;;;;5076481;28;20025;-78
2024/01/27 06:52:00;;;;;;;4.18;1.92;;;;;;;;;;5086429;28;20032;-78
2024/01/27 06:54:27;;;;;;;5.80;1.50;;;;;;;;;;5099774;28;20035;-77
2024/01/27 06:56:53;;;;;;;4.90;1.35;;;;;;;;;;5089312;28;20021;-78
2024/01/27 06:59:19;;;;;;;8.45;1.60;;;;;;;;;;5092075;28;20025;-77
2024/01/27 07:01:48;;;;;;;3.22;1.30;;;;;;;;;;5073898;28;20153;-77
2024/01/27 07:04:15;;;;;;;3.05;1.25;;;;;;;;;;5096140;28;20059;-80
2024/01/27 07:06:42;;;;;;;3.13;0.82;;;;;;;;;;5092355;28;20024;-77
2024/01/27 07:09:09;;;;;;;4.45;1.33;;;;;;;;;;5078617;28;20056;-79
2024/01/27 07:11:35;;;;;;;3.50;1.42;;;;;;;;;;5087864;28;20025;-78
2024/01/27 07:14:02;;;;;;;3.03;1.30;;;;;;;;;;5084355;28;20024;-78
2024/01/27 07:16:28;;;;;;;4.47;1.55;;;;;;;;;;5081228;28;20086;-77
2024/01/27 07:18:54;;;;;;;3.53;1.30;;;;;;;;;;5067937;28;20040;-77
2024/01/27 07:21:20;;;;;;;6.32;1.60;;;;;;;;;;5082127;28;20028;-79
2024/01/27 07:23:46;;;;;;;4.63;1.33;;;;;;;;;;5091779;28;20025;-79
2024/01/27 07:26:13;;;;;;;4.57;1.30;;;;;;;;;;5090141;28;20111;-78
2024/01/27 07:28:39;;;;;;;5.60;1.30;;;;;;;;;;5080981;28;20020;-77
2024/01/27 07:31:08;;;;;;;3.70;1.65;;;;;;;;;;5088071;28;20115;-78
2024/01/27 07:33:34;;;;;;;7.07;1.45;;;;;;;;;;5089856;28;20023;-79
2024/01/27 07:36:01;;;;;;;3.45;1.33;;;;;;;;;;5096199;28;20364;-77
2024/01/27 07:38:27;;;;;;;5.10;1.60;;;;;;;;;;5099721;28;20099;-77
2024/01/27 07:40:53;;;;;;;6.40;1.92;;;;;;;;;;5078230;28;20024;-77
2024/01/27 07:43:19;;;;;;;4.05;1.52;;;;;;;;;;5087811;27;20035;-78
2024/01/27 07:45:46;;;;;;;3.88;1.60;;;;;;;;;;5110900;27;20039;-77
2024/01/27 07:48:12;;;;;;;3.40;1.60;;;;;;;;;;5088584;28;20028;-78
2024/01/27 07:50:38;;;;;;;4.28;1.52;;;;;;;;;;5097233;28;20094;-76
2024/01/27 07:53:05;;;;;;;2.30;1.30;;;;;;;;;;5083316;28;20040;-77
2024/01/27 07:55:32;;;;;;;2.35;1.40;;;;;;;;;;5084912;28;20020;-78
2024/01/27 07:57:58;;;;;;;2.70;1.13;;;;;;;;;;5101752;27;20029;-77
2024/01/27 08:00:24;;;;;;;4.70;1.40;;;;;;;;;;5112972;28;20009;-77
2024/01/27 08:02:50;;;;;;;4.78;1.90;;;;;;;;;;5095147;28;20028;-77
2024/01/27 08:05:16;;;;;;;6.05;1.52;;;;;;;;;;5081632;28;20029;-78
2024/01/27 08:07:42;;;;;;;5.32;1.60;;;;;;;;;;5096860;28;20012;-76
2024/01/27 08:10:10;;;;;;;2.60;1.52;;;;;;;;;;5103130;28;20115;-77
2024/01/27 08:12:37;;;;;;;3.63;1.52;;;;;;;;;;5093166;28;20046;-77
2024/01/27 08:15:03;;;;;;;2.97;1.30;;;;;;;;;;5103632;28;20100;-77
2024/01/27 08:17:29;;;;;;;1.17;0.98;;;;;;;;;;5093124;28;20114;-76
2024/01/27 08:19:55;;;;;;;3.33;1.30;;;;;;;;;;5076939;28;20094;-78
2024/01/27 08:22:21;;;;;;;3.35;1.50;;;;;;;;;;5080199;28;20060;-77
2024/01/27 08:24:47;;;;;;;4.50;1.33;;;;;;;;;;5080644;28;20036;-76
2024/01/27 08:27:13;;;;;;;4.32;1.73;;;;;;;;;;5073515;28;20062;-77
2024/01/27 08:29:39;;;;;;;3.60;1.65;;;;;;;;;;5076725;28;20025;-77
2024/01/27 08:32:05;;;;;;;5.55;1.90;;;;;;;;;;5088255;28;20043;-77
2024/01/27 08:34:32;;;;;;;7.32;1.77;;;;;;;;;;5080753;28;20032;-77
2024/01/27 08:37:02;;;;;;;4.53;2.15;;;;;;;;;;5088175;28;20076;-77
2024/01/27 08:39:28;;;;;;;2.50;1.63;;;;;;;;;;5071012;28;20033;-78
2024/01/27 08:41:54;;;;;;;7.43;2.35;;;;;;;;;;5068107;28;20017;-78
2024/01/27 08:44:20;;;;;;;5.78;2.20;;;;;;;;;;5062710;28;20062;-78
2024/01/27 08:46:46;;;;;;;1.88;1.25;;;;;;;;;;5078046;28;20016;-78
2024/01/27 08:49:12;;;;;;;5.60;1.67;;;;;;;;;;5083057;28;20023;-78
2024/01/27 08:51:38;;;;;;;4.28;1.77;;;;;;;;;;5093562;28;20082;-79
2024/01/27 08:54:05;;;;;;;10.80;2.30;;;;;;;;;;5089879;28;20039;-77
2024/01/27 08:56:31;;;;;;;5.35;2.00;;;;;;;;;;5076688;28;20025;-78
2024/01/27 08:58:57;;;;;;;4.80;1.65;;;;;;;;;;5083684;28;20035;-76
2024/01/27 09:01:23;;;;;;;2.58;1.48;;;;;;;;;;5087118;28;20024;-79
2024/01/27 09:03:49;;;;;;;5.30;1.30;;;;;;;;;;5075780;28;20044;-78
2024/01/27 09:06:16;;;;;;;3.35;1.40;;;;;;;;;;5112714;28;20020;-77
2024/01/27 09:08:42;;;;;;;3.72;0.98;;;;;;;;;;5094547;28;20035;-77
2024/01/27 09:11:09;;;;;;;4.18;1.50;;;;;;;;;;5089612;28;20028;-77
2024/01/27 09:13:35;;;;;;;3.03;1.17;;;;;;;;;;5084516;28;20036;-79
2024/01/27 09:16:01;;;;;;;2.63;1.40;;;;;;;;;;5079391;28;20020;-78
2024/01/27 09:18:27;;;;;;;4.32;1.60;;;;;;;;;;5077906;28;20107;-78
2024/01/27 09:20:54;;;;;;;5.15;1.90;;;;;;;;;;5085428;28;20033;-77
2024/01/27 09:23:20;;;;;;;4.85;1.98;;;;;;;;;;5080489;28;20040;-78
2024/01/27 09:25:46;;;;;;;3.08;1.52;;;;;;;;;;5088383;28;20039;-79
2024/01/27 09:28:12;;;;;;;2.60;1.20;;;;;;;;;;5086746;28;20029;-79
2024/01/27 09:30:38;;;;;;;3.58;1.50;;;;;;;;;;5079229;28;20396;-78
2024/01/27 09:33:05;;;;;;;4.13;1.95;;;;;;;;;;5078166;28;20035;-77
2024/01/27 09:35:31;;;;;;;8.07;2.38;;;;;;;;;;5086715;28;20035;-76
2024/01/27 09:37:57;;;;;;;3.50;1.98;;;;;;;;;;5084622;28;20107;-78
2024/01/27 09:40:23;;;;;;;4.20;1.80;;;;;;;;;;5078365;28;20129;-77
2024/01/27 09:42:52;;;;;;;7.32;2.40;;;;;;;;;;5083361;28;20033;-78
2024/01/27 09:45:19;;;;;;;5.95;1.98;;;;;;;;;;5077822;28;20465;-77
2024/01/27 09:47:46;;;;;;;8.50;2.85;;;;;;;;;;5088370;28;20091;-76
2024/01/27 09:50:12;;;;;;;9.05;2.00;;;;;;;;;;5088452;28;20044;-77
2024/01/27 09:52:38;;;;;;;5.70;2.33;;;;;;;;;;5081247;28;20065;-78
2024/01/27 09:55:04;;;;;;;7.35;3.13;;;;;;;;;;5060825;28;20043;-78
2024/01/27 09:57:31;;;;;;;8.60;2.17;;;;;;;;;;5081554;28;20021;-78
2024/01/27 09:59:57;;;;;;;7.18;2.10;;;;;;;;;;5079201;28;20446;-77
2024/01/27 10:02:24;;;;;;;2.70;1.45;;;;;;;;;;5077537;28;20025;-77
2024/01/27 10:04:52;;;;;;;2.35;1.40;;;;;;;;;;5086303;28;20021;-77
2024/01/27 10:07:18;;;;;;;6.38;2.55;;;;;;;;;;5092826;28;20028;-77
2024/01/27 10:09:44;;;;;;;6.90;2.05;;;;;;;;;;5086411;28;20036;-78
2024/01/27 10:12:10;;;;;;;7.55;1.60;;;;;;;;;;5090616;28;20494;-79
2024/01/27 10:14:40;;;;;;;11.23;2.90;;;;;;;;;;5097163;28;20020;-79
2024/01/27 10:17:10;;;;;;;4.78;1.80;;;;;;;;;;5082522;28;20096;-79
2024/01/27 10:19:36;;;;;;;4.72;1.83;;;;;;;;;;5070672;28;20550;-77
2024/01/27 10:22:02;;;;;;;4.90;1.70;;;;;;;;;;5079723;28;20105;-78
2024/01/27 10:24:29;;;;;;;5.22;1.88;;;;;;;;;;5084598;28;20035;-77
2024/01/27 10:27:04;;;;;;;6.40;2.22;;;;;;;;;;5080162;28;20133;-77
2024/01/27 10:29:31;;;;;;;4.93;1.55;;;;;;;;;;5086059;28;20037;-77
2024/01/27 10:32:08;;;;;;;7.30;2.17;;;;;;;;;;5081578;28;20028;-76
2024/01/27 10:34:34;;;;;;;5.53;1.90;;;;;;;;;;5093414;28;20040;-76
2024/01/27 10:37:00;;;;;;;4.25;1.98;;;;;;;;;;5086985;28;20081;-78
2024/01/27 10:39:26;;;;;;;3.72;1.65;;;;;;;;;;5086805;28;20032;-78
2024/01/27 10:41:52;;;;;;;7.45;1.73;;;;;;;;;;5086408;28;20020;-77
2024/01/27 10:44:19;;;;;;;3.10;1.33;;;;;;;;;;5090349;28;20028;-77
2024/01/27 10:46:46;;;;;;;3.20;1.42;;;;;;;;;;5092629;28;20017;-77
2024/01/27 10:49:16;;;;;;;2.67;1.02;;;;;;;;;;5092941;28;20089;-77
2024/01/27 10:51:58;;;;;;;2.33;0.90;;;;;;;;;;5088264;28;20364;-77
2024/01/27 10:54:28;;;;;;;7.38;2.78;;;;;;;;;;5079239;28;20020;-78
2024/01/27 10:56:58;;;;;;;6.63;2.10;;;;;;;;;;5070272;28;20039;-76
2024/01/27 10:59:26;;;;;;;6.90;2.03;;;;;;;;;;5083365;28;20023;-76
2024/01/27 11:01:55;;;;;;;5.38;1.88;;;;;;;;;;5084603;28;20032;-77
2024/01/27 11:04:21;;;;;;;8.27;2.25;;;;;;;;;;5089219;28;20020;-77
2024/01/27 11:06:50;;;;;;;4.50;1.52;;;;;;;;;;5089285;28;20025;-77
2024/01/27 11:09:17;;;;;;;3.75;1.50;;;;;;;;;;5094786;28;20044;-77
2024/01/27 11:11:45;;;;;;;9.52;2.67;;;;;;;;;;5078890;28;20070;-77
2024/01/27 11:14:11;;;;;;;3.47;1.77;;;;;;;;;;5093361;28;20028;-76
2024/01/27 11:16:43;;;;;;;8.45;2.00;;;;;;;;;;5079238;28;20078;-77
2024/01/27 11:19:10;;;;;;;;;;;;;;;;;;5087539;28;20082;-77
2024/01/27 11:21:36;;;;;;;4.85;1.50;;;;;;;;;;5081074;28;19951;-78
2024/01/27 11:24:12;;;;;;;3.95;2.08;;;;;;;;;;5082806;28;20024;-78
2024/01/27 11:26:38;;;;;;;4.57;0.90;;;;;;;;;;5079977;28;20025;-78
2024/01/27 11:29:09;;;;;;;4.45;1.55;;;;;;;;;;5066654;28;20028;-77
2024/01/27 11:31:35;;;;;;;6.43;1.60;;;;;;;;;;5080483;28;20493;-77
2024/01/27 11:34:01;;;;;;;4.47;1.55;;;;;;;;;;5079645;28;20544;-77
2024/01/27 11:36:27;;;;;;;2.80;1.33;;;;;;;;;;5075950;28;20126;-77
2024/01/27 11:38:55;;;;;;;5.07;2.00;;;;;;;;;;5075677;28;20029;-76
2024/01/27 11:41:28;;;;;;;4.50;1.58;;;;;;;;;;5077016;28;20020;-77
2024/01/27 11:43:55;;;;;;;3.67;1.30;;;;;;;;;;5075243;28;20564;-77
2024/01/27 11:46:21;;;;;;;5.68;1.40;;;;;;;;;;5075458;28;20040;-77
2024/01/27 11:48:48;;;;;;;2.78;1.27;;;;;;;;;;5066086;28;20035;-77
2024/01/27 11:51:14;;;;;;;1.83;0.75;;;;;;;;;;5075501;28;20025;-77
2024/01/27 11:53:40;;;;;;;2.25;1.30;;;;;;;;;;5076036;28;20028;-78
2024/01/27 11:56:07;;;;;;;1.10;0.80;;;;;;;;;;5077706;28;20025;-78
2024/01/27 11:58:33;;;;;;;2.20;1.00;;;;;;;;;;5076045;28;20029;-77
2024/01/27 12:01:00;;;;;;;2.35;0.80;;;;;;;;;;5075241;28;20051;-77
2024/01/27 12:03:27;;;;;;;1.60;0.82;;;;;;;;;;5077974;28;20039;-77
2024/01/27 12:05:53;;;;;;;2.53;1.20;;;;;;;;;;5081380;28;20034;-77
2024/01/27 12:08:19;;;;;;;1.50;1.08;;;;;;;;;;5073031;28;20084;-78
2024/01/27 12:10:45;;;;;;;6.72;1.20;;;;;;;;;;5080884;28;20275;-78
2024/01/27 12:13:11;;;;;;;4.13;1.10;;;;;;;;;;5074515;28;20388;-77
2024/01/27 12:15:37;;;;;;;1.67;0.95;;;;;;;;;;5075166;28;20060;-77
2024/01/27 12:18:06;;;;;;;0.73;0.60;;;;;;;;;;5074878;28;20515;-77
2024/01/27 12:20:32;;;;;;;1.50;0.80;;;;;;;;;;5069680;28;20021;-77
2024/01/27 12:23:08;;;;;;;2.97;1.35;;;;;;;;;;5080429;28;20025;-77
2024/01/27 12:25:35;;;;;;;3.47;1.35;;;;;;;;;;5068381;28;20028;-78
2024/01/27 12:28:04;;;;;;;3.97;1.55;;;;;;;;;;5075180;28;20036;-78
2024/01/27 12:30:33;;;;;;;4.22;1.48;;;;;;;;;;5066411;28;20039;-77
2024/01/27 12:32:59;;;;;;;7.95;2.30;;;;;;;;;;5073974;28;20526;-77
2024/01/27 12:35:26;;;;;;;2.95;1.30;;;;;;;;;;5073823;28;20021;-77
2024/01/27 12:37:53;;;;;;;5.07;1.88;;;;;;;;;;5075020;28;20028;-77
2024/01/27 12:40:20;;;;;;;2.15;1.13;;;;;;;;;;5075740;28;20025;-78
2024/01/27 12:42:46;;;;;;;4.28;1.27;;;;;;;;;;5080503;28;20523;-77
2024/01/27 12:45:12;;;;;;;2.88;1.48;;;;;;;;;;5079981;28;20092;-76
2024/01/27 12:47:39;;;;;;;2.15;0.63;;;;;;;;;;5073882;28;20036;-77
2024/01/27 12:50:06;;;;;;;1.60;0.80;;;;;;;;;;5085242;28;20077;-77
2024/01/27 12:52:32;;;;;;;2.00;0.80;;;;;;;;;;5078761;28;20012;-77
2024/01/27 12:54:58;;;;;;;1.73;1.00;;;;;;;;;;5074330;28;20021;-76
2024/01/27 12:57:24;;;;;;;1.83;0.80;;;;;;;;;;5084530;28;20028;-76
2024/01/27 12:59:51;;;;;;;2.63;0.65;;;;;;;;;;5070693;28;20479;-76
2024/01/27 13:02:17;;;;;;;6.85;1.20;;;;;;;;;;5090069;28;20025;-76
2024/01/27 13:04:43;;;;;;;6.40;1.85;;;;;;;;;;5095776;27;20027;-77
2024/01/27 13:07:10;;;;;;;4.63;1.70;;;;;;;;;;5097559;28;20036;-76
2024/01/27 13:09:39;;;;;;;3.20;1.48;;;;;;;;;;5093683;27;20022;-75
2024/01/27 13:12:06;;;;;;;3.75;1.42;;;;;;;;;;5091617;27;20028;-77
2024/01/27 13:14:32;;;;;;;4.35;1.50;;;;;;;;;;5097336;28;20008;-75
2024/01/27 13:16:59;;;;;;;4.03;1.05;;;;;;;;;;5097123;28;20054;-77
2024/01/27 13:19:25;;;;;;;2.40;0.80;;;;;;;;;;5096334;28;20013;-75
2024/01/27 13:21:51;;;;;;;1.55;0.80;;;;;;;;;;5095833;28;20028;-76
2024/01/27 13:24:17;;;;;;;6.15;1.85;;;;;;;;;;5094891;28;20021;-76
2024/01/27 13:26:43;;;;;;;6.07;1.27;;;;;;;;;;5086299;28;20387;-77
2024/01/27 13:29:09;;;;;;;3.90;1.35;;;;;;;;;;5091343;28;20017;-76
2024/01/27 13:31:35;;;;;;;1.48;0.70;;;;;;;;;;5087869;28;20020;-76
2024/01/27 13:34:01;;;;;;;1.30;0.88;;;;;;;;;;5095104;28;20035;-76
2024/01/27 13:36:28;;;;;;;3.20;0.93;;;;;;;;;;5095779;28;20020;-77
2024/01/27 13:38:54;;;;;;;4.20;1.25;;;;;;;;;;5094881;28;20017;-75
2024/01/27 13:41:20;;;;;;;2.25;0.65;;;;;;;;;;5095683;28;20037;-75
2024/01/27 13:43:46;;;;;;;3.03;0.93;;;;;;;;;;5094837;28;20035;-77
2024/01/27 13:46:12;;;;;;;2.35;0.98;;;;;;;;;;5091110;28;20051;-77
2024/01/27 13:48:38;;;;;;;2.50;0.77;;;;;;;;;;5093714;28;20042;-77
2024/01/27 13:51:04;;;;;;;2.97;0.98;;;;;;;;;;5104845;28;20028;-77
2024/01/27 13:53:30;;;;;;;2.40;0.85;;;;;;;;;;5087329;28;20047;-77
2024/01/27 13:55:56;;;;;;;2.58;0.70;;;;;;;;;;5095456;28;20042;-77
2024/01/27 13:58:22;;;;;;;2.33;0.75;;;;;;;;;;5085999;28;20040;-78
2024/01/27 14:00:48;;;;;;;2.60;1.20;;;;;;;;;;5064041;28;20042;-77
2024/01/27 14:03:15;;;;;;;4.68;1.30;;;;;;;;;;5072460;28;20388;-76
2024/01/27 14:05:42;;;;;;;3.30;1.00;;;;;;;;;;5075760;28;20177;-77
2024/01/27 14:08:10;;;;;;;1.40;0.77;;;;;;;;;;5073109;28;20047;-77
2024/01/27 14:10:36;;;;;;;0.93;0.57;;;;;;;;;;5076640;28;20031;-77
2024/01/27 14:13:04;;;;;;;3.78;0.80;;;;;;;;;;5086013;28;20028;-77
2024/01/27 14:15:31;;;;;;;2.15;0.77;;;;;;;;;;5080312;28;20027;-77
2024/01/27 14:17:57;;;;;;;2.25;0.70;;;;;;;;;;5079166;28;20024;-77
2024/01/27 14:20:23;;;;;;;1.52;0.52;;;;;;;;;;5086973;28;20024;-77
2024/01/27 14:22:49;;;;;;;1.42;0.50;;;;;;;;;;5079436;28;20024;-77
2024/01/27 14:25:15;;;;;;;2.90;0.85;;;;;;;;;;5080628;28;20024;-77
2024/01/27 14:27:42;;;;;;;5.45;1.30;;;;;;;;;;5078639;28;20383;-78
2024/01/27 14:30:10;;;;;;;3.17;1.00;;;;;;;;;;5075311;28;20025;-79
2024/01/27 14:32:36;;;;;;;3.35;1.10;;;;;;;;;;5086608;28;20020;-77
2024/01/27 14:35:06;;;;;;;5.22;1.00;;;;;;;;;;5090533;28;20059;-78
2024/01/27 14:37:32;;;;;;;2.33;0.70;;;;;;;;;;5086858;28;20028;-79
2024/01/27 14:39:58;;;;;;;1.30;0.80;;;;;;;;;;5097498;28;20016;-79